Time;durP1;ratioP1;P1;durP2;ratioP2;P2;SDS_P1;SDS_P2;PMS_P1;PMS_P2;Temp;Humidity;BMP_temperature;BMP_pressure;BME280_temperature;BME280_humidity;BME280_pressure;Samples;Min_cycle;Max_cycle;Signal;HPM_P1;HPM_P2
2023/03/27 00:01:11;;;;;;;;;;;;;;;4.90;81.94;98014.94;5091512;28;19938;-80
2023/03/27 00:03:37;;;;;;;;;;;;;;;4.73;81.49;98017.50;5090630;28;20003;-80
2023/03/27 00:06:15;;;;;;;;;;;;;;;4.68;82.32;98021.84;5094987;28;19963;-79
2023/03/27 00:08:49;;;;;;;;;;;;;;;4.55;77.62;98025.53;5077735;28;20372;-80
2023/03/27 00:11:15;;;;;;;;;;;;;;;4.90;81.26;98033.44;5089941;28;19920;-80
2023/03/27 00:13:42;;;;;;;;;;;;;;;4.18;79.99;98037.34;5089003;28;19973;-80
2023/03/27 00:16:07;;;;;;;;;;;;;;;4.63;82.10;98038.41;5084265;28;19916;-80
2023/03/27 00:18:35;;;;;;;;;;;;;;;4.53;82.16;98039.00;5092350;28;19916;-80
2023/03/27 00:21:02;;;;;;;;;;;;;;;4.54;82.82;98043.22;5092021;28;19927;-80
2023/03/27 00:23:30;;;;;;;;;;;;;;;4.42;78.84;98047.72;5070704;28;19920;-79
2023/03/27 00:25:56;;;;;;;;;;;;;;;4.44;82.21;98050.94;5090660;28;19923;-79
2023/03/27 00:28:22;;;;;;;;;;;;;;;4.79;81.74;98065.97;5090562;28;19916;-80
2023/03/27 00:30:48;;;;;;;;;;;;;;;4.13;78.76;98066.28;5055973;28;19926;-79
2023/03/27 00:33:13;;;;;;;;;;;;;;;4.39;81.72;98061.38;5088833;28;21042;-80
2023/03/27 00:35:43;;;;;;;;;;;;;;;4.15;80.03;98075.56;5083373;28;19988;-79
2023/03/27 00:38:08;;;;;;;;;;;;;;;4.09;78.53;98080.94;5066595;28;19916;-79
2023/03/27 00:40:33;;;;;;;;;;;;;;;2.93;76.17;98081.19;5086272;28;20483;-79
2023/03/27 00:42:59;;;;;;;;;;;;;;;4.02;79.47;98088.94;5091802;28;20310;-80
2023/03/27 00:45:27;;;;;;;;;;;;;;;5.02;81.28;98103.00;5078815;28;19947;-80
2023/03/27 00:47:55;;;;;;;;;;;;;;;4.88;78.28;98093.69;5085690;28;20001;-79
2023/03/27 00:50:26;;;;;;;;;;;;;;;4.74;80.15;98098.38;5084715;28;19916;-79
2023/03/27 00:52:55;;;;;;;;;;;;;;;4.44;80.56;98103.75;5068476;28;20390;-80
2023/03/27 00:55:21;;;;;;;;;;;;;;;4.29;79.76;98119.25;5073207;28;20300;-79
2023/03/27 00:57:50;;;;;;;;;;;;;;;3.41;75.25;98117.34;5072191;28;20400;-79
2023/03/27 01:00:15;;;;;;;;;;;;;;;3.77;80.31;98118.16;5084951;28;19931;-79
2023/03/27 01:02:43;;;;;;;;;;;;;;;3.74;79.03;98120.41;5073947;28;20302;-79
2023/03/27 01:05:09;;;;;;;;;;;;;;;2.61;75.88;98124.44;5088617;28;20380;-80
2023/03/27 01:07:35;;;;;;;;;;;;;;;3.02;78.49;98124.69;5071967;28;19951;-80
2023/03/27 01:10:01;;;;;;;;;;;;;;;3.75;81.72;98132.59;5066620;28;20442;-79
2023/03/27 01:12:45;;;;;;;;;;;;;;;3.32;79.87;98129.25;5081307;28;19916;-79
2023/03/27 01:15:17;;;;;;;;;;;;;;;3.82;82.15;98127.22;5090243;28;19916;-79
2023/03/27 01:17:49;;;;;;;;;;;;;;;3.76;77.48;98123.63;5082687;28;19940;-79
2023/03/27 01:20:21;;;;;;;;;;;;;;;3.48;77.13;98128.66;5085047;28;20429;-79
2023/03/27 01:23:05;;;;;;;;;;;;;;;2.77;75.90;98128.38;5063738;28;19963;-79
2023/03/27 01:25:50;;;;;;;;;;;;;;;3.98;78.40;98139.78;5088663;28;19955;-80
2023/03/27 01:28:28;;;;;;;;;;;;;;;2.77;75.53;98145.00;5086246;28;19924;-80
2023/03/27 01:31:02;;;;;;;;;;;;;;;3.51;81.66;98150.13;5066063;28;19920;-80
2023/03/27 01:33:43;;;;;;;;;;;;;;;3.61;79.80;98149.59;5074105;28;19916;-80
2023/03/27 01:36:12;;;;;;;;;;;;;;;3.64;80.90;98157.91;5077910;28;19920;-80
2023/03/27 01:38:56;;;;;;;;;;;;;;;3.63;79.48;98163.38;5067831;28;19924;-80
2023/03/27 01:41:29;;;;;;;;;;;;;;;3.99;80.66;98168.63;5087480;28;20431;-80
2023/03/27 01:44:01;;;;;;;;;;;;;;;3.87;81.70;98169.59;5085379;28;19920;-80
2023/03/27 01:46:40;;;;;;;;;;;;;;;3.90;79.84;98175.22;5091740;28;20007;-79
2023/03/27 01:49:18;;;;;;;;;;;;;;;2.94;74.25;98190.03;5084458;28;19916;-79
2023/03/27 01:51:49;;;;;;;;;;;;;;;3.79;78.88;98182.06;5079282;28;19917;-79
2023/03/27 01:54:26;;;;;;;;;;;;;;;3.63;79.73;98179.19;5066280;28;19954;-80
2023/03/27 01:57:14;;;;;;;;;;;;;;;3.64;78.05;98194.03;5068489;28;19928;-80
2023/03/27 01:59:43;;;;;;;;;;;;;;;2.82;73.77;98202.28;5081651;28;19955;-80
2023/03/27 02:02:12;;;;;;;;;;;;;;;3.02;74.76;98202.94;5061519;28;19924;-79
2023/03/27 02:04:47;;;;;;;;;;;;;;;3.20;75.54;98199.53;5071387;28;19916;-80
2023/03/27 02:07:17;;;;;;;;;;;;;;;3.72;78.44;98204.28;5089744;28;20004;-79
2023/03/27 02:09:52;;;;;;;;;;;;;;;4.00;78.21;98209.81;5071730;28;20102;-79
2023/03/27 02:12:20;;;;;;;;;;;;;;;2.81;74.11;98221.78;5071991;28;19924;-80
2023/03/27 02:14:57;;;;;;;;;;;;;;;3.63;79.33;98216.94;5075838;28;20345;-80
2023/03/27 02:17:25;;;;;;;;;;;;;;;3.54;76.73;98222.72;5082698;28;19959;-79
2023/03/27 02:20:09;;;;;;;;;;;;;;;3.28;75.97;98228.25;5092782;28;19920;-79
2023/03/27 02:22:36;;;;;;;;;;;;;;;3.28;74.50;98233.53;5091616;28;19923;-79
2023/03/27 02:25:01;;;;;;;;;;;;;;;2.54;74.75;98236.94;5075019;28;20315;-79
2023/03/27 02:27:35;;;;;;;;;;;;;;;2.94;76.56;98243.56;5090651;28;19994;-80
2023/03/27 02:30:12;;;;;;;;;;;;;;;2.23;73.60;98240.34;5072304;28;20383;-80
2023/03/27 02:32:46;;;;;;;;;;;;;;;4.10;79.40;98241.81;5086804;28;20383;-79
2023/03/27 02:35:21;;;;;;;;;;;;;;;2.71;71.25;98247.78;5086766;28;19967;-80
2023/03/27 02:37:46;;;;;;;;;;;;;;;3.35;74.81;98244.84;5083557;28;19916;-80
2023/03/27 02:40:32;;;;;;;;;;;;;;;3.87;78.93;98262.00;5087534;28;20510;-80
2023/03/27 02:43:09;;;;;;;;;;;;;;;3.73;78.56;98258.69;5081109;28;21081;-80
2023/03/27 02:45:58;;;;;;;;;;;;;;;2.44;72.03;98268.22;5087653;28;19943;-79
2023/03/27 02:48:30;;;;;;;;;;;;;;;3.38;77.39;98273.41;5074127;28;19927;-79
2023/03/27 02:51:00;;;;;;;;;;;;;;;3.31;74.44;98291.94;5084618;28;19923;-79
2023/03/27 02:53:27;;;;;;;;;;;;;;;2.46;70.91;98302.22;5087873;28;19926;-80
2023/03/27 02:55:55;;;;;;;;;;;;;;;3.24;75.93;98295.63;5090795;28;20020;-80
2023/03/27 02:58:25;;;;;;;;;;;;;;;3.66;77.63;98302.78;5055131;28;19920;-80
2023/03/27 03:00:51;;;;;;;;;;;;;;;3.82;76.44;98289.03;5084836;28;19974;-79
2023/03/27 03:03:26;;;;;;;;;;;;;;;3.07;73.52;98320.91;5088317;28;19920;-80
2023/03/27 03:05:51;;;;;;;;;;;;;;;3.51;76.35;98318.97;5085060;28;19931;-80
2023/03/27 03:08:20;;;;;;;;;;;;;;;3.54;74.56;98328.25;5070265;28;19925;-80
2023/03/27 03:10:46;;;;;;;;;;;;;;;3.62;75.44;98336.72;5088468;28;19924;-80
2023/03/27 03:13:11;;;;;;;;;;;;;;;3.99;74.94;98337.59;5092348;28;20018;-81
2023/03/27 03:15:37;;;;;;;;;;;;;;;4.03;75.48;98332.66;5085756;28;19956;-80
2023/03/27 03:18:03;;;;;;;;;;;;;;;3.91;74.48;98342.34;5091728;28;19931;-80
2023/03/27 03:20:28;;;;;;;;;;;;;;;4.19;75.56;98338.19;5070101;28;19935;-80
2023/03/27 03:22:54;;;;;;;;;;;;;;;4.17;74.50;98339.44;5053797;28;20388;-80
2023/03/27 03:25:19;;;;;;;;;;;;;;;3.83;72.79;98345.25;5068414;28;19920;-79
2023/03/27 03:27:44;;;;;;;;;;;;;;;3.61;73.41;98347.47;5067151;28;20012;-80
2023/03/27 03:30:11;;;;;;;;;;;;;;;3.49;73.36;98352.66;5083251;28;19974;-80
2023/03/27 03:32:36;;;;;;;;;;;;;;;3.83;74.62;98353.97;5081160;28;20014;-80
2023/03/27 03:35:01;;;;;;;;;;;;;;;3.93;72.34;98366.69;5093413;28;19963;-80
2023/03/27 03:37:27;;;;;;;;;;;;;;;3.96;74.77;98369.69;5087823;28;19920;-79
2023/03/27 03:39:55;;;;;;;;;;;;;;;4.08;73.95;98370.59;5091091;28;19928;-81
2023/03/27 03:42:21;;;;;;;;;;;;;;;3.83;72.96;98379.56;5072114;28;20025;-80
2023/03/27 03:44:46;;;;;;;;;;;;;;;4.01;73.65;98383.06;5075199;28;19920;-80
2023/03/27 03:47:11;;;;;;;;;;;;;;;3.49;71.53;98389.59;5086434;28;19920;-79
2023/03/27 03:49:37;;;;;;;;;;;;;;;3.75;72.62;98404.41;5066537;28;19927;-80
2023/03/27 03:52:02;;;;;;;;;;;;;;;4.19;73.40;98401.56;5094391;28;19920;-81
2023/03/27 03:54:27;;;;;;;;;;;;;;;4.12;73.47;98411.38;5087559;28;19916;-79
2023/03/27 03:56:52;;;;;;;;;;;;;;;4.06;72.61;98417.56;5090288;28;19928;-80
2023/03/27 03:59:18;;;;;;;;;;;;;;;4.11;73.62;98414.22;5088759;28;19924;-80
2023/03/27 04:01:44;;;;;;;;;;;;;;;3.88;73.90;98424.59;5070911;28;19928;-80
2023/03/27 04:04:10;;;;;;;;;;;;;;;3.67;74.22;98420.50;5085230;28;19920;-80
2023/03/27 04:06:38;;;;;;;;;;;;;;;3.97;74.02;98424.13;5086311;28;19924;-80
2023/03/27 04:09:03;;;;;;;;;;;;;;;3.95;73.50;98423.53;5070499;28;20405;-80
2023/03/27 04:11:29;;;;;;;;;;;;;;;4.06;73.63;98428.13;5091065;28;20050;-81
2023/03/27 04:13:54;;;;;;;;;;;;;;;3.83;74.09;98437.63;5090033;28;19942;-80
2023/03/27 04:16:20;;;;;;;;;;;;;;;3.81;74.00;98435.22;5072714;28;20294;-80
2023/03/27 04:18:45;;;;;;;;;;;;;;;3.70;72.83;98452.56;5089559;28;20014;-81
2023/03/27 04:21:13;;;;;;;;;;;;;;;3.27;74.35;98454.25;5073191;28;19927;-80
2023/03/27 04:23:42;;;;;;;;;;;;;;;3.49;74.02;98454.75;5084898;28;19920;-80
2023/03/27 04:26:07;;;;;;;;;;;;;;;2.94;72.92;98454.41;5088588;28;19928;-80
2023/03/27 04:28:33;;;;;;;;;;;;;;;2.85;72.87;98455.66;5072308;28;19920;-80
2023/03/27 04:31:05;;;;;;;;;;;;;;;3.25;74.90;98455.47;5080425;28;19916;-80
2023/03/27 04:33:31;;;;;;;;;;;;;;;3.50;74.90;98465.06;5069420;28;20418;-80
2023/03/27 04:35:56;;;;;;;;;;;;;;;3.25;73.78;98472.13;5093797;28;19920;-81
2023/03/27 04:38:25;;;;;;;;;;;;;;;3.24;73.36;98475.78;5057600;28;20070;-79
2023/03/27 04:40:51;;;;;;;;;;;;;;;3.03;73.27;98476.91;5078463;28;19964;-79
2023/03/27 04:43:16;;;;;;;;;;;;;;;3.31;74.03;98478.38;5070796;28;19920;-80
2023/03/27 04:45:45;;;;;;;;;;;;;;;3.31;73.93;98473.09;5096707;28;19920;-80
2023/03/27 04:48:10;;;;;;;;;;;;;;;3.07;72.65;98479.09;5072128;28;19924;-80
2023/03/27 04:50:36;;;;;;;;;;;;;;;3.20;73.97;98485.13;5082456;28;19926;-79
2023/03/27 04:53:01;;;;;;;;;;;;;;;2.76;72.69;98485.09;5086508;28;19920;-80
2023/03/27 04:55:27;;;;;;;;;;;;;;;3.42;74.28;98482.97;5088807;28;19928;-81
2023/03/27 04:57:53;;;;;;;;;;;;;;;3.18;73.27;98487.16;5055706;28;19925;-80
2023/03/27 05:00:19;;;;;;;;;;;;;;;3.45;72.81;98487.84;5065865;28;20407;-80
2023/03/27 05:02:45;;;;;;;;;;;;;;;3.57;74.11;98494.88;5052029;28;19924;-80
2023/03/27 05:05:10;;;;;;;;;;;;;;;3.11;72.43;98501.38;5069667;28;19921;-81
2023/03/27 05:07:36;;;;;;;;;;;;;;;3.39;73.52;98494.75;5092484;28;19924;-80
2023/03/27 05:10:01;;;;;;;;;;;;;;;3.71;73.78;98503.50;5087861;28;20006;-80
2023/03/27 05:12:26;;;;;;;;;;;;;;;3.61;73.62;98511.88;5090147;28;19973;-81
2023/03/27 05:14:52;;;;;;;;;;;;;;;3.42;72.63;98512.81;5086018;28;20023;-81
2023/03/27 05:17:17;;;;;;;;;;;;;;;3.27;73.55;98522.81;5092101;28;20011;-79
2023/03/27 05:19:43;;;;;;;;;;;;;;;3.45;73.69;98515.00;5088346;28;19998;-79
2023/03/27 05:22:09;;;;;;;;;;;;;;;3.59;73.48;98521.03;5086997;28;21340;-81
2023/03/27 05:24:34;;;;;;;;;;;;;;;3.06;72.65;98519.66;5080486;28;20347;-80
2023/03/27 05:26:59;;;;;;;;;;;;;;;3.54;73.68;98528.75;5068582;28;19991;-80
2023/03/27 05:29:25;;;;;;;;;;;;;;;3.44;74.13;98537.16;5085848;28;19928;-81
2023/03/27 05:31:51;;;;;;;;;;;;;;;2.94;73.11;98535.31;5092863;28;19921;-80
2023/03/27 05:34:18;;;;;;;;;;;;;;;3.55;74.36;98540.94;5071966;28;19920;-81
2023/03/27 05:36:43;;;;;;;;;;;;;;;3.19;73.29;98543.34;5085056;28;20350;-80
2023/03/27 05:39:08;;;;;;;;;;;;;;;3.22;73.21;98546.38;5092016;28;19969;-80
2023/03/27 05:41:38;;;;;;;;;;;;;;;3.42;74.36;98548.91;5066838;28;20346;-80
2023/03/27 05:44:04;;;;;;;;;;;;;;;3.57;73.80;98546.81;5093569;28;19920;-80
2023/03/27 05:46:29;;;;;;;;;;;;;;;3.40;74.37;98553.59;5069288;28;19927;-80
2023/03/27 05:48:54;;;;;;;;;;;;;;;2.92;72.63;98555.81;5068531;28;19958;-80
2023/03/27 05:51:20;;;;;;;;;;;;;;;3.23;73.40;98555.09;5093647;28;19920;-80
2023/03/27 05:53:45;;;;;;;;;;;;;;;2.98;73.92;98566.31;5082432;28;19920;-81
2023/03/27 05:56:11;;;;;;;;;;;;;;;2.83;74.44;98560.47;5068923;28;19950;-81
2023/03/27 05:58:37;;;;;;;;;;;;;;;3.14;75.38;98559.78;5060161;28;19927;-81
2023/03/27 06:01:03;;;;;;;;;;;;;;;3.40;74.13;98569.44;5066957;28;19920;-80
2023/03/27 06:03:29;;;;;;;;;;;;;;;3.37;74.70;98557.47;5074355;28;20037;-80
2023/03/27 06:05:55;;;;;;;;;;;;;;;3.43;74.29;98563.75;5086321;28;19920;-81
2023/03/27 06:08:20;;;;;;;;;;;;;;;3.02;73.36;98571.97;5089051;28;19920;-80
2023/03/27 06:10:45;;;;;;;;;;;;;;;3.40;74.48;98574.69;5089190;28;19923;-81
2023/03/27 06:13:12;;;;;;;;;;;;;;;3.21;74.44;98579.00;5057369;28;20011;-81
2023/03/27 06:15:39;;;;;;;;;;;;;;;3.47;74.41;98593.97;5082636;28;19983;-81
2023/03/27 06:18:04;;;;;;;;;;;;;;;3.37;73.69;98593.56;5085537;28;19920;-81
2023/03/27 06:20:30;;;;;;;;;;;;;;;3.21;75.01;98591.41;5084016;28;20410;-80
2023/03/27 06:22:58;;;;;;;;;;;;;;;3.19;74.34;98598.72;5087853;28;19990;-80
2023/03/27 06:25:24;;;;;;;;;;;;;;;3.30;74.96;98606.78;5065765;28;19924;-80
2023/03/27 06:27:50;;;;;;;;;;;;;;;3.35;74.65;98614.88;5064835;28;19939;-80
2023/03/27 06:30:17;;;;;;;;;;;;;;;3.44;74.34;98602.28;5084448;28;19920;-80
2023/03/27 06:32:43;;;;;;;;;;;;;;;3.25;75.00;98614.53;5080015;28;19936;-81
2023/03/27 06:35:09;;;;;;;;;;;;;;;3.45;74.61;98625.03;5081914;28;20013;-80
2023/03/27 06:37:36;;;;;;;;;;;;;;;3.55;74.12;98628.81;5083251;28;21312;-81
2023/03/27 06:40:03;;;;;;;;;;;;;;;3.41;74.07;98637.78;5089426;28;20076;-81
2023/03/27 06:42:28;;;;;;;;;;;;;;;2.89;73.05;98630.00;5069703;28;19924;-81
2023/03/27 06:44:55;;;;;;;;;;;;;;;3.19;74.21;98635.63;5081084;28;19974;-81
2023/03/27 06:47:21;;;;;;;;;;;;;;;3.25;74.02;98648.81;5065422;28;20351;-80
2023/03/27 06:49:47;;;;;;;;;;;;;;;3.40;75.58;98638.00;5071058;28;20447;-81
2023/03/27 06:52:13;;;;;;;;;;;;;;;3.10;74.60;98644.78;5060732;28;20031;-80
2023/03/27 06:54:38;;;;;;;;;;;;;;;3.55;74.42;98647.28;5084713;28;19923;-81
2023/03/27 06:57:04;;;;;;;;;;;;;;;3.53;75.16;98657.25;5066812;28;19924;-80
2023/03/27 06:59:30;;;;;;;;;;;;;;;3.67;74.08;98663.28;5064180;28;19930;-80
2023/03/27 07:01:55;;;;;;;;;;;;;;;3.56;74.19;98674.50;5076225;28;19942;-81
2023/03/27 07:04:21;;;;;;;;;;;;;;;3.79;74.61;98667.72;5066061;28;19927;-81
2023/03/27 07:06:47;;;;;;;;;;;;;;;3.58;74.72;98678.53;5078639;28;19928;-80
2023/03/27 07:09:13;;;;;;;;;;;;;;;3.61;74.77;98677.31;5079984;28;19983;-81
2023/03/27 07:11:38;;;;;;;;;;;;;;;3.83;74.32;98681.28;5081855;28;20018;-81
2023/03/27 07:14:04;;;;;;;;;;;;;;;3.46;74.52;98680.19;5080128;28;19916;-81
2023/03/27 07:16:30;;;;;;;;;;;;;;;3.76;75.12;98685.78;5083927;28;20066;-81
2023/03/27 07:18:56;;;;;;;;;;;;;;;3.89;74.38;98687.56;5040646;28;19935;-81
2023/03/27 07:21:21;;;;;;;;;;;;;;;3.58;73.92;98690.94;5058885;28;19920;-81
2023/03/27 07:23:46;;;;;;;;;;;;;;;3.87;75.05;98690.41;5061159;28;20400;-81
2023/03/27 07:26:12;;;;;;;;;;;;;;;3.67;74.41;98695.75;5083993;28;20289;-81
2023/03/27 07:28:37;;;;;;;;;;;;;;;3.63;75.47;98699.84;5081156;28;20186;-81
2023/03/27 07:31:09;;;;;;;;;;;;;;;3.98;74.73;98691.56;5081035;28;19924;-81
2023/03/27 07:33:34;;;;;;;;;;;;;;;4.04;73.97;98691.53;5060773;28;19927;-80
2023/03/27 07:36:05;;;;;;;;;;;;;;;4.03;73.97;98699.69;5077403;28;19928;-80
2023/03/27 07:38:30;;;;;;;;;;;;;;;4.00;74.66;98703.56;5078216;28;19923;-80
2023/03/27 07:40:56;;;;;;;;;;;;;;;3.59;74.23;98713.66;5060058;28;19950;-80
2023/03/27 07:43:24;;;;;;;;;;;;;;;3.86;74.60;98711.75;5041848;28;19934;-80
2023/03/27 07:45:49;;;;;;;;;;;;;;;3.48;74.09;98709.00;5073431;28;20686;-80
2023/03/27 07:48:15;;;;;;;;;;;;;;;3.64;75.16;98711.22;5078574;28;21350;-80
2023/03/27 07:50:41;;;;;;;;;;;;;;;3.63;74.58;98720.13;5078756;28;19924;-82
2023/03/27 07:53:07;;;;;;;;;;;;;;;3.96;74.12;98712.91;5077751;28;20007;-82
2023/03/27 07:55:35;;;;;;;;;;;;;;;3.66;74.54;98725.00;5092452;28;20351;-81
2023/03/27 07:58:00;;;;;;;;;;;;;;;3.84;74.51;98726.97;5091539;28;19916;-81
2023/03/27 08:00:26;;;;;;;;;;;;;;;3.75;74.68;98724.59;5092040;28;20183;-81
2023/03/27 08:02:51;;;;;;;;;;;;;;;3.85;74.53;98729.41;5093545;28;19916;-81
2023/03/27 08:05:20;;;;;;;;;;;;;;;3.73;75.28;98731.09;5068147;28;19966;-81
2023/03/27 08:07:46;;;;;;;;;;;;;;;4.01;75.21;98747.44;5094412;28;20398;-82
2023/03/27 08:10:11;;;;;;;;;;;;;;;4.27;74.13;98739.41;5078654;28;19919;-81
2023/03/27 08:12:37;;;;;;;;;;;;;;;4.35;74.23;98735.69;5070300;28;19969;-81
2023/03/27 08:15:03;;;;;;;;;;;;;;;4.44;73.96;98737.88;5087984;28;19966;-81
2023/03/27 08:17:29;;;;;;;;;;;;;;;4.48;74.06;98741.72;5089753;28;20109;-80
2023/03/27 08:19:55;;;;;;;;;;;;;;;4.47;73.18;98747.22;5092675;28;19924;-81
2023/03/27 08:22:20;;;;;;;;;;;;;;;4.61;73.75;98750.59;5081384;28;20299;-81
2023/03/27 08:24:46;;;;;;;;;;;;;;;4.38;73.45;98761.69;5042738;28;19928;-81
2023/03/27 08:27:12;;;;;;;;;;;;;;;4.50;72.88;98755.53;5064392;28;19920;-81
2023/03/27 08:29:37;;;;;;;;;;;;;;;4.73;73.38;98757.63;5071684;28;19924;-81
2023/03/27 08:32:03;;;;;;;;;;;;;;;4.60;73.39;98764.84;5038358;28;20273;-82
2023/03/27 08:34:29;;;;;;;;;;;;;;;4.43;73.13;98767.94;5055920;28;19928;-81
2023/03/27 08:36:54;;;;;;;;;;;;;;;4.46;73.38;98767.53;5058287;28;20399;-81
2023/03/27 08:39:21;;;;;;;;;;;;;;;4.40;73.51;98778.16;5056317;28;21493;-81
2023/03/27 08:41:58;;;;;;;;;;;;;;;4.72;73.52;98782.44;5050757;28;19928;-80
2023/03/27 08:44:24;;;;;;;;;;;;;;;4.19;73.34;98786.38;5067925;28;19927;-80
2023/03/27 08:46:56;;;;;;;;;;;;;;;4.58;73.62;98775.63;5086879;28;19920;-80
2023/03/27 08:49:25;;;;;;;;;;;;;;;4.41;73.95;98785.84;5081151;28;19924;-79
2023/03/27 08:51:53;;;;;;;;;;;;;;;4.81;73.56;98788.28;5080879;28;19922;-80
2023/03/27 08:54:21;;;;;;;;;;;;;;;4.64;73.93;98787.16;5068649;28;19979;-80
2023/03/27 08:56:47;;;;;;;;;;;;;;;4.58;72.97;98794.13;5066168;28;19960;-81
2023/03/27 08:59:20;;;;;;;;;;;;;;;4.64;73.36;98795.09;5054477;28;19924;-80
2023/03/27 09:01:50;;;;;;;;;;;;;;;4.81;72.84;98790.94;5068228;28;19920;-80
2023/03/27 09:04:22;;;;;;;;;;;;;;;4.95;72.99;98795.13;5092720;28;19916;-80
2023/03/27 09:07:06;;;;;;;;;;;;;;;4.91;72.76;98807.97;5067834;28;19920;-79
2023/03/27 09:09:32;;;;;;;;;;;;;;;4.65;73.51;98797.56;5090202;28;19923;-79
2023/03/27 09:12:16;;;;;;;;;;;;;;;4.24;72.48;98808.50;5086471;28;20295;-79
2023/03/27 09:14:50;;;;;;;;;;;;;;;4.85;73.90;98808.81;5092207;28;19942;-80
2023/03/27 09:17:24;;;;;;;;;;;;;;;4.97;72.13;98807.13;5070668;28;19920;-79
2023/03/27 09:19:54;;;;;;;;;;;;;;;5.03;72.98;98813.38;5083477;28;19920;-80
2023/03/27 09:22:22;;;;;;;;;;;;;;;5.03;73.22;98816.84;5090484;28;19916;-79
2023/03/27 09:24:50;;;;;;;;;;;;;;;4.95;73.46;98816.28;5070723;28;19920;-79
2023/03/27 09:27:17;;;;;;;;;;;;;;;5.06;72.68;98820.88;5084727;28;19947;-79
2023/03/27 09:29:42;;;;;;;;;;;;;;;5.02;71.70;98820.50;5069207;28;20345;-80
2023/03/27 09:32:15;;;;;;;;;;;;;;;5.15;71.34;98814.31;5082192;28;19924;-79
2023/03/27 09:34:40;;;;;;;;;;;;;;;5.30;70.99;98809.53;5080184;28;20316;-79
2023/03/27 09:37:15;;;;;;;;;;;;;;;5.31;71.33;98813.78;5084681;28;19917;-79
2023/03/27 09:39:44;;;;;;;;;;;;;;;5.07;70.08;98810.09;5085121;28;20376;-79
2023/03/27 09:42:19;;;;;;;;;;;;;;;5.23;70.81;98814.88;5085850;28;19953;-79
2023/03/27 09:44:50;;;;;;;;;;;;;;;5.17;69.44;98813.09;5078118;28;20439;-79
2023/03/27 09:47:39;;;;;;;;;;;;;;;5.26;70.45;98811.78;5079934;28;20420;-79
2023/03/27 09:50:14;;;;;;;;;;;;;;;5.21;69.88;98824.03;5050073;28;20284;-79
2023/03/27 09:52:40;;;;;;;;;;;;;;;5.21;69.49;98824.03;5063974;28;19956;-79
2023/03/27 09:55:22;;;;;;;;;;;;;;;5.27;69.66;98821.34;5082890;28;20371;-80
2023/03/27 09:57:48;;;;;;;;;;;;;;;5.23;70.65;98827.28;5083845;28;19928;-80
2023/03/27 10:00:29;;;;;;;;;;;;;;;5.35;70.20;98820.28;5061571;28;20295;-80
2023/03/27 10:02:59;;;;;;;;;;;;;;;5.46;69.79;98821.41;5082077;28;19920;-79
2023/03/27 10:05:24;;;;;;;;;;;;;;;5.61;69.75;98820.06;5085797;28;19931;-80
2023/03/27 10:07:49;;;;;;;;;;;;;;;5.80;69.05;98826.19;5079377;28;19916;-80
2023/03/27 10:10:16;;;;;;;;;;;;;;;5.76;68.34;98820.53;5066417;28;19923;-80
2023/03/27 10:12:42;;;;;;;;;;;;;;;5.54;69.34;98819.31;5079847;28;20309;-79
2023/03/27 10:15:23;;;;;;;;;;;;;;;5.56;69.29;98819.06;5062287;28;19986;-79
2023/03/27 10:17:48;;;;;;;;;;;;;;;5.73;69.52;98828.09;5080922;28;19916;-79
2023/03/27 10:20:19;;;;;;;;;;;;;;;5.83;68.94;98823.91;5082464;28;19931;-79
2023/03/27 10:22:52;;;;;;;;;;;;;;;5.85;68.90;98827.19;5078945;28;20399;-79
2023/03/27 10:25:25;;;;;;;;;;;;;;;5.62;70.36;98826.97;5077917;28;19916;-79
2023/03/27 10:27:51;;;;;;;;;;;;;;;5.61;69.07;98821.91;5083314;28;20186;-79
2023/03/27 10:30:33;;;;;;;;;;;;;;;5.77;69.53;98819.50;5084837;28;19920;-79
2023/03/27 10:32:58;;;;;;;;;;;;;;;5.97;68.53;98811.38;5066266;28;19950;-79
2023/03/27 10:35:29;;;;;;;;;;;;;;;5.64;67.37;98814.31;5084546;28;19920;-80
2023/03/27 10:37:55;;;;;;;;;;;;;;;5.77;68.50;98826.63;5078982;28;19927;-79
2023/03/27 10:40:23;;;;;;;;;;;;;;;5.81;68.83;98833.91;5059894;28;19928;-80
2023/03/27 10:42:49;;;;;;;;;;;;;;;5.86;68.39;98828.81;5070874;28;19920;-79
2023/03/27 10:45:18;;;;;;;;;;;;;;;5.92;68.79;98841.16;5070599;28;19927;-79
2023/03/27 10:47:47;;;;;;;;;;;;;;;5.96;69.46;98839.69;5086644;28;19927;-80
2023/03/27 10:50:22;;;;;;;;;;;;;;;6.03;68.89;98845.75;5075427;28;19916;-79
2023/03/27 10:52:58;;;;;;;;;;;;;;;6.06;68.90;98844.50;5072557;28;19995;-80
2023/03/27 10:55:30;;;;;;;;;;;;;;;5.71;69.17;98835.44;5093638;28;19955;-80
2023/03/27 10:57:59;;;;;;;;;;;;;;;5.87;69.03;98837.56;5088443;28;19916;-79
2023/03/27 11:00:31;;;;;;;;;;;;;;;5.65;68.08;98833.66;5067457;28;19928;-79
2023/03/27 11:03:02;;;;;;;;;;;;;;;5.73;69.71;98836.03;5092731;28;20372;-80
2023/03/27 11:05:33;;;;;;;;;;;;;;;5.45;64.99;98819.78;5090194;28;20015;-79
2023/03/27 11:08:02;;;;;;;;;;;;;;;6.02;69.35;98832.72;5091144;28;20287;-79
2023/03/27 11:10:31;;;;;;;;;;;;;;;5.97;67.98;98835.22;5085446;28;20388;-79
2023/03/27 11:13:00;;;;;;;;;;;;;;;5.76;69.26;98839.06;5080417;28;20280;-79
2023/03/27 11:15:28;;;;;;;;;;;;;;;5.92;67.07;98835.88;5085520;28;20884;-79
2023/03/27 11:17:53;;;;;;;;;;;;;;;6.38;67.70;98834.56;5071531;28;19966;-80
2023/03/27 11:20:45;;;;;;;;;;;;;;;6.63;67.09;98827.34;5086509;28;20394;-80
2023/03/27 11:23:14;;;;;;;;;;;;;;;6.78;67.37;98828.56;5064731;28;19916;-80
2023/03/27 11:25:44;;;;;;;;;;;;;;;6.95;66.33;98839.34;5069199;28;19916;-80
2023/03/27 11:28:22;;;;;;;;;;;;;;;7.05;66.99;98841.47;5085881;28;19963;-80
2023/03/27 11:30:50;;;;;;;;;;;;;;;6.98;67.62;98852.19;5086852;28;19924;-79
2023/03/27 11:33:23;;;;;;;;;;;;;;;6.93;67.31;98852.03;5067694;28;20003;-80
2023/03/27 11:35:52;;;;;;;;;;;;;;;6.93;67.32;98841.41;5088438;28;19916;-80
2023/03/27 11:38:19;;;;;;;;;;;;;;;6.95;68.08;98836.69;5086347;28;19966;-79
2023/03/27 11:40:46;;;;;;;;;;;;;;;6.97;67.25;98844.44;5086620;28;19920;-81
2023/03/27 11:43:13;;;;;;;;;;;;;;;6.72;64.27;98848.03;5086352;28;19928;-79
2023/03/27 11:45:43;;;;;;;;;;;;;;;6.76;64.61;98843.09;5068790;28;20383;-80
2023/03/27 11:48:14;;;;;;;;;;;;;;;6.95;66.71;98843.84;5072456;28;19916;-79
2023/03/27 11:50:40;;;;;;;;;;;;;;;7.06;67.07;98857.16;5091409;28;19924;-80
2023/03/27 11:53:11;;;;;;;;;;;;;;;6.92;65.34;98857.56;5085530;28;20394;-80
2023/03/27 11:55:55;;;;;;;;;;;;;;;7.04;63.80;98859.22;5081496;28;19936;-80
2023/03/27 11:58:27;;;;;;;;;;;;;;;6.93;62.54;98852.03;5082362;28;20018;-80
2023/03/27 12:00:52;;;;;;;;;;;;;;;7.17;62.26;98848.44;5063548;28;20387;-80
2023/03/27 12:03:17;;;;;;;;;;;;;;;7.35;62.15;98837.75;5085814;28;19941;-80
2023/03/27 12:05:58;;;;;;;;;;;;;;;7.27;61.39;98848.69;5064555;28;19971;-79
2023/03/27 12:08:26;;;;;;;;;;;;;;;7.74;60.29;98852.22;5080280;28;19916;-80
2023/03/27 12:10:53;;;;;;;;;;;;;;;7.76;59.56;98847.50;5066494;28;19923;-80
2023/03/27 12:13:34;;;;;;;;;;;;;;;7.81;60.73;98850.28;5044756;28;19931;-79
2023/03/27 12:16:09;;;;;;;;;;;;;;;7.87;59.24;98852.00;5070979;28;19934;-80
2023/03/27 12:18:49;;;;;;;;;;;;;;;7.79;60.03;98872.81;5066108;28;20065;-80
2023/03/27 12:21:22;;;;;;;;;;;;;;;7.53;62.23;98887.31;5081234;28;19925;-81
2023/03/27 12:24:07;;;;;;;;;;;;;;;7.08;63.92;98871.00;5072537;28;19920;-80
2023/03/27 12:26:32;;;;;;;;;;;;;;;6.77;65.43;98860.63;5064997;28;19920;-80
2023/03/27 12:29:22;;;;;;;;;;;;;;;6.80;65.95;98863.63;5088038;28;19920;-80
2023/03/27 12:31:51;;;;;;;;;;;;;;;6.72;65.43;98865.78;5065840;28;19954;-79
2023/03/27 12:34:36;;;;;;;;;;;;;;;6.37;64.13;98864.78;5077500;28;19924;-79
2023/03/27 12:37:03;;;;;;;;;;;;;;;6.67;60.72;98873.59;5089922;28;20042;-79
2023/03/27 12:39:28;;;;;;;;;;;;;;;6.93;64.32;98880.41;5086567;28;19943;-79
2023/03/27 12:41:54;;;;;;;;;;;;;;;7.02;64.63;98890.50;5081232;28;20368;-80
2023/03/27 12:44:27;;;;;;;;;;;;;;;7.15;66.55;98895.63;5088799;28;19920;-80
2023/03/27 12:47:14;;;;;;;;;;;;;;;6.53;66.48;98896.00;5064531;28;19951;-79
2023/03/27 12:49:43;;;;;;;;;;;;;;;6.51;67.32;98884.81;5074983;28;20699;-78
2023/03/27 12:52:10;;;;;;;;;;;;;;;6.77;67.43;98876.53;5065456;28;20012;-80
2023/03/27 12:54:39;;;;;;;;;;;;;;;6.73;66.80;98865.56;5081819;28;19924;-80
2023/03/27 12:57:16;;;;;;;;;;;;;;;6.89;66.64;98874.75;5086989;28;20039;-80
2023/03/27 12:59:42;;;;;;;;;;;;;;;7.56;64.54;98863.75;5084712;28;19931;-80
2023/03/27 13:02:24;;;;;;;;;;;;;;;7.32;63.20;98861.28;5069768;28;19916;-79
2023/03/27 13:05:09;;;;;;;;;;;;;;;7.76;62.32;98859.97;5083666;28;19920;-81
2023/03/27 13:07:44;;;;;;;;;;;;;;;7.26;63.73;98873.63;5085157;28;20283;-80